Time;durP1;ratioP1;P1;durP2;ratioP2;P2;SDS_P1;SDS_P2;PMS_P1;PMS_P2;Temp;Humidity;BMP_temperature;BMP_pressure;BME280_temperature;BME280_humidity;BME280_pressure;Samples;Min_cycle;Max_cycle;Signal;HPM_P1;HPM_P2
2022/12/05 00:01:30;;;;;;;21.27;7.65;;;;;;;-0.09;100.00;93555.19;4998938;28;20051;-67
2022/12/05 00:03:59;;;;;;;20.65;7.50;;;;;;;-0.03;100.00;93559.91;4989849;28;20039;-67
2022/12/05 00:06:28;;;;;;;20.02;8.15;;;;;;;-0.03;100.00;93569.94;4999861;28;20041;-67
2022/12/05 00:08:56;;;;;;;22.63;7.82;;;;;;;0.05;100.00;93578.94;5010263;28;20046;-67
2022/12/05 00:11:25;;;;;;;21.60;8.90;;;;;;;0.03;100.00;93582.00;5001518;28;20076;-67
2022/12/05 00:13:54;;;;;;;20.40;7.88;;;;;;;0.10;100.00;93584.03;5012955;28;20484;-67
2022/12/05 00:16:24;;;;;;;19.27;7.50;;;;;;;0.06;100.00;93589.38;5013163;28;20134;-67
2022/12/05 00:18:51;;;;;;;20.70;8.10;;;;;;;0.03;100.00;93584.69;4999164;28;20046;-67
2022/12/05 00:21:20;;;;;;;22.52;7.55;;;;;;;-0.04;100.00;93588.03;5013223;28;20501;-67
2022/12/05 00:23:47;;;;;;;20.73;8.07;;;;;;;-0.11;100.00;93587.91;5013226;28;20046;-67
2022/12/05 00:26:15;;;;;;;20.15;7.72;;;;;;;-0.08;100.00;93587.19;5011455;28;21702;-67
2022/12/05 00:28:42;;;;;;;22.20;8.38;;;;;;;-0.13;100.00;93586.69;5013335;28;20061;-67
2022/12/05 00:31:12;;;;;;;20.40;7.88;;;;;;;-0.10;100.00;93583.28;5012603;28;20084;-67
2022/12/05 00:33:39;;;;;;;20.23;7.70;;;;;;;-0.08;100.00;93589.91;5013358;28;20068;-67
2022/12/05 00:36:20;;;;;;;19.20;7.82;;;;;;;-0.10;100.00;93597.56;4998082;28;20042;-67
2022/12/05 00:38:47;;;;;;;19.40;7.57;;;;;;;-0.11;100.00;93596.00;5001138;28;20530;-67
2022/12/05 00:41:17;;;;;;;19.40;7.45;;;;;;;-0.11;100.00;93598.69;5011813;28;20913;-67
2022/12/05 00:43:43;;;;;;;22.48;8.25;;;;;;;0.02;100.00;93603.94;5012877;28;20034;-67
2022/12/05 00:46:13;;;;;;;19.83;7.32;;;;;;;-0.06;100.00;93600.31;5011891;28;20049;-67
2022/12/05 00:48:40;;;;;;;19.90;7.40;;;;;;;-0.02;100.00;93612.75;5012807;28;20054;-67
2022/12/05 00:51:17;;;;;;;18.52;7.63;;;;;;;0.00;100.00;93607.00;5012417;28;20092;-67
2022/12/05 00:53:45;;;;;;;18.33;6.75;;;;;;;-0.04;100.00;93611.53;5012911;28;20057;-67
2022/12/05 00:56:13;;;;;;;17.33;6.97;;;;;;;-0.07;100.00;93612.25;5007156;28;20052;-67
2022/12/05 00:58:41;;;;;;;16.38;6.35;;;;;;;-0.04;100.00;93617.72;5012625;28;20103;-67
2022/12/05 01:01:17;;;;;;;16.20;6.20;;;;;;;0.10;100.00;93600.22;5002559;28;20057;-67
2022/12/05 01:03:46;;;;;;;15.25;5.97;;;;;;;0.24;100.00;93597.78;4986283;28;20519;-67
2022/12/05 01:06:14;;;;;;;17.13;6.95;;;;;;;0.17;100.00;93605.78;4997162;28;20430;-67
2022/12/05 01:08:41;;;;;;;19.25;7.90;;;;;;;0.06;100.00;93608.28;5011355;28;20057;-67
2022/12/05 01:11:09;;;;;;;14.38;6.22;;;;;;;0.01;100.00;93597.75;4997882;28;20064;-67
2022/12/05 01:13:36;;;;;;;15.60;6.60;;;;;;;0.06;100.00;93583.19;5012197;28;20050;-67
2022/12/05 01:16:03;;;;;;;15.65;6.53;;;;;;;0.00;100.00;93593.53;5011915;28;20042;-67
2022/12/05 01:18:30;;;;;;;13.55;5.80;;;;;;;0.19;100.00;93615.06;5000801;28;20050;-67
2022/12/05 01:20:57;;;;;;;14.88;6.03;;;;;;;0.24;100.00;93634.81;5009086;28;20100;-67
2022/12/05 01:23:24;;;;;;;14.38;5.95;;;;;;;0.26;100.00;93643.31;5012040;28;20057;-67
2022/12/05 01:25:52;;;;;;;15.32;6.05;;;;;;;0.20;100.00;93661.72;5010952;28;20081;-67
2022/12/05 01:28:18;;;;;;;11.88;5.45;;;;;;;0.08;100.00;93692.34;4996343;28;20164;-67
2022/12/05 01:30:47;;;;;;;14.05;5.85;;;;;;;0.07;100.00;93698.84;5012094;28;20046;-67
2022/12/05 01:33:15;;;;;;;14.48;5.75;;;;;;;0.09;100.00;93695.81;5010725;28;21504;-67
2022/12/05 01:35:42;;;;;;;13.43;5.43;;;;;;;0.06;100.00;93694.59;5002415;28;20053;-67
2022/12/05 01:38:11;;;;;;;16.77;6.75;;;;;;;0.02;100.00;93684.84;5007696;28;20060;-67
2022/12/05 01:40:39;;;;;;;14.68;6.03;;;;;;;-0.01;100.00;93692.53;5011875;28;20042;-68
2022/12/05 01:43:14;;;;;;;18.20;7.32;;;;;;;0.06;100.00;93686.53;5011241;28;20151;-67
2022/12/05 01:45:44;;;;;;;16.90;7.88;;;;;;;0.05;100.00;93676.84;5011774;28;20410;-67
2022/12/05 01:48:20;;;;;;;16.33;6.07;;;;;;;0.07;100.00;93684.59;5011453;28;20045;-67
2022/12/05 01:50:48;;;;;;;14.73;6.00;;;;;;;0.02;100.00;93690.25;5011743;28;20052;-67
2022/12/05 01:53:16;;;;;;;15.57;6.13;;;;;;;0.05;100.00;93682.25;5010246;28;20921;-67
2022/12/05 01:55:46;;;;;;;15.23;6.45;;;;;;;0.10;100.00;93676.56;5006159;28;20042;-67
2022/12/05 01:58:13;;;;;;;15.65;6.57;;;;;;;0.19;100.00;93676.34;5009992;28;20517;-67
2022/12/05 02:00:40;;;;;;;14.07;5.82;;;;;;;0.28;100.00;93666.13;5005215;28;20479;-67
2022/12/05 02:03:10;;;;;;;15.23;6.20;;;;;;;0.24;100.00;93676.06;4991972;28;20296;-67
2022/12/05 02:05:37;;;;;;;14.15;5.82;;;;;;;0.15;100.00;93681.69;4995774;28;20042;-67
2022/12/05 02:08:08;;;;;;;13.65;5.60;;;;;;;0.05;100.00;93686.88;5007797;28;20053;-67
2022/12/05 02:10:42;;;;;;;16.10;6.55;;;;;;;0.07;100.00;93700.78;4995740;28;20402;-67
2022/12/05 02:13:41;;;;;;;14.38;6.18;;;;;;;0.08;100.00;93695.03;5011102;28;20099;-67
2022/12/05 02:16:19;;;;;;;15.18;5.97;;;;;;;0.16;100.00;93685.94;5010715;28;20045;-67
2022/12/05 02:19:08;;;;;;;15.20;6.20;;;;;;;0.20;100.00;93683.31;4997806;28;20055;-67
2022/12/05 02:21:47;;;;;;;14.43;5.93;;;;;;;0.28;100.00;93689.63;4997041;28;20725;-67
2022/12/05 02:24:44;;;;;;;14.25;6.40;;;;;;;0.14;100.00;93685.53;5009367;28;20686;-67
2022/12/05 02:27:36;;;;;;;15.32;6.25;;;;;;;0.20;100.00;93683.31;5010577;28;20672;-67
2022/12/05 02:30:07;;;;;;;15.43;6.57;;;;;;;0.32;100.00;93676.97;5010383;28;20058;-67
2022/12/05 02:32:43;;;;;;;15.48;6.28;;;;;;;0.35;100.00;93676.28;5010786;28;20054;-68
2022/12/05 02:35:17;;;;;;;16.48;6.85;;;;;;;0.45;100.00;93683.03;5002444;28;20046;-68
2022/12/05 02:38:10;;;;;;;15.13;6.28;;;;;;;0.45;100.00;93680.31;5006410;28;20052;-68
2022/12/05 02:40:43;;;;;;;13.75;5.82;;;;;;;0.37;100.00;93690.97;5009792;28;20353;-68
2022/12/05 02:43:19;;;;;;;15.13;6.40;;;;;;;0.32;100.00;93696.69;5010267;28;20050;-68
2022/12/05 02:45:50;;;;;;;16.50;6.60;;;;;;;0.36;100.00;93685.94;5011068;28;20071;-67
2022/12/05 02:48:19;;;;;;;15.45;5.80;;;;;;;0.42;100.00;93675.63;5009262;28;20142;-67
2022/12/05 02:50:49;;;;;;;14.30;5.97;;;;;;;0.43;100.00;93686.06;5010626;28;20119;-68
2022/12/05 02:53:18;;;;;;;15.25;6.15;;;;;;;0.43;100.00;93682.59;5009757;28;20831;-68
2022/12/05 02:55:46;;;;;;;16.27;6.80;;;;;;;0.49;100.00;93673.06;5004842;28;20042;-68
2022/12/05 02:58:23;;;;;;;14.93;6.47;;;;;;;0.55;100.00;93675.13;5003776;28;20076;-67
2022/12/05 03:00:57;;;;;;;19.83;6.90;;;;;;;0.43;100.00;93679.91;5009844;28;20529;-67
2022/12/05 03:03:24;;;;;;;15.70;6.88;;;;;;;0.26;100.00;93694.59;5010220;28;20049;-68
2022/12/05 03:06:01;;;;;;;15.45;6.75;;;;;;;0.14;100.00;93692.81;5010133;28;20037;-68
2022/12/05 03:08:43;;;;;;;15.98;6.53;;;;;;;0.22;100.00;93686.44;5008892;28;20438;-68
2022/12/05 03:11:10;;;;;;;18.95;7.15;;;;;;;0.31;100.00;93691.63;5000024;28;20045;-68
2022/12/05 03:13:51;;;;;;;17.23;7.00;;;;;;;0.27;100.00;93688.06;5010210;28;20057;-67
2022/12/05 03:16:25;;;;;;;22.75;8.50;;;;;;;0.25;100.00;93696.53;5009331;28;20245;-67
2022/12/05 03:19:00;;;;;;;24.27;8.65;;;;;;;0.21;100.00;93694.91;5009772;28;20652;-67
2022/12/05 03:21:42;;;;;;;20.33;7.50;;;;;;;0.32;100.00;93695.88;5010155;28;20041;-67
2022/12/05 03:24:12;;;;;;;22.42;7.72;;;;;;;0.39;100.00;93702.19;5009251;28;20050;-68
2022/12/05 03:26:54;;;;;;;20.25;7.60;;;;;;;0.33;100.00;93708.25;4997776;28;20056;-68
2022/12/05 03:29:43;;;;;;;20.08;7.57;;;;;;;0.33;100.00;93698.22;5008833;28;20054;-67
2022/12/05 03:32:18;;;;;;;19.13;7.60;;;;;;;0.30;100.00;93706.25;5009646;28;20103;-68
2022/12/05 03:34:57;;;;;;;19.92;7.65;;;;;;;0.36;100.00;93713.72;4996492;28;20050;-68
2022/12/05 03:37:35;;;;;;;19.88;7.45;;;;;;;0.41;100.00;93709.94;5009199;28;20422;-67
2022/12/05 03:40:31;;;;;;;20.52;6.95;;;;;;;0.34;100.00;93713.28;4996002;28;20580;-67
2022/12/05 03:43:11;;;;;;;24.33;9.48;;;;;;;0.48;100.00;93712.00;4996192;28;20120;-67
2022/12/05 03:45:43;;;;;;;22.17;8.77;;;;;;;0.50;100.00;93707.03;4993071;28;20065;-68
2022/12/05 03:48:18;;;;;;;20.25;7.78;;;;;;;0.64;100.00;93710.00;4996134;28;20056;-68
2022/12/05 03:50:49;;;;;;;22.45;8.30;;;;;;;0.52;100.00;93710.91;5006576;28;20054;-68
2022/12/05 03:53:26;;;;;;;26.45;9.52;;;;;;;0.56;100.00;93713.69;4989466;28;20334;-68
2022/12/05 03:56:05;;;;;;;23.15;8.00;;;;;;;0.44;100.00;93708.44;5003859;28;20482;-67
2022/12/05 03:58:48;;;;;;;18.90;8.32;;;;;;;0.56;100.00;93714.50;5009552;28;20041;-67
2022/12/05 04:01:20;;;;;;;19.83;8.48;;;;;;;0.58;100.00;93706.81;4989540;28;20129;-67
2022/12/05 04:03:57;;;;;;;27.20;10.13;;;;;;;0.73;100.00;93718.66;5001953;28;20050;-68
2022/12/05 04:06:29;;;;;;;22.13;7.90;;;;;;;0.74;100.00;93717.50;5008630;28;20138;-68
2022/12/05 04:09:07;;;;;;;21.08;8.45;;;;;;;0.52;100.00;93720.94;5009511;28;20050;-68
2022/12/05 04:11:47;;;;;;;21.67;8.32;;;;;;;0.48;100.00;93730.91;5009479;28;20057;-68
2022/12/05 04:14:22;;;;;;;20.27;7.65;;;;;;;0.35;100.00;93724.88;5009007;28;20398;-68
2022/12/05 04:17:04;;;;;;;18.20;7.93;;;;;;;0.31;100.00;93738.28;5002135;28;20509;-67
2022/12/05 04:22:33;;;;;;;23.10;8.48;;;;;;;0.29;100.00;93737.09;5008555;28;20930;-68
2022/12/05 04:27:57;;;;;;;19.48;7.90;;;;;;;0.50;100.00;93729.38;5009815;28;20495;-68
2022/12/05 04:30:31;;;;;;;22.43;8.70;;;;;;;0.54;100.00;93726.75;5008107;28;20913;-67
2022/12/05 04:33:21;;;;;;;22.92;9.23;;;;;;;0.53;100.00;93733.31;5009204;28;20056;-67
2022/12/05 04:36:08;;;;;;;22.65;8.45;;;;;;;0.50;100.00;93729.38;5009005;28;20050;-68
2022/12/05 04:38:49;;;;;;;20.60;8.52;;;;;;;0.48;100.00;93758.66;5009980;28;20050;-68
2022/12/05 04:41:33;;;;;;;25.30;9.73;;;;;;;0.55;100.00;93772.31;5012037;28;20441;-67
2022/12/05 04:44:05;;;;;;;22.00;8.20;;;;;;;0.46;100.00;93773.66;4992695;28;20044;-68
2022/12/05 04:46:34;;;;;;;21.40;8.50;;;;;;;0.44;100.00;93782.09;4997222;28;20053;-67
2022/12/05 04:49:05;;;;;;;24.58;9.50;;;;;;;0.42;100.00;93783.59;5006158;28;20057;-68
2022/12/05 04:51:35;;;;;;;24.75;9.38;;;;;;;0.42;100.00;93768.19;4998345;28;20610;-68
2022/12/05 04:54:36;;;;;;;27.73;9.85;;;;;;;0.52;100.00;93762.22;5010776;28;20042;-68
2022/12/05 04:57:23;;;;;;;24.63;9.10;;;;;;;0.63;100.00;93740.06;5003673;28;20407;-68
2022/12/05 04:59:50;;;;;;;27.27;9.13;;;;;;;0.65;100.00;93762.88;5001259;28;20054;-66
2022/12/05 05:02:23;;;;;;;26.83;9.52;;;;;;;0.43;100.00;93785.19;5009718;28;20042;-66
2022/12/05 05:04:52;;;;;;;25.33;9.32;;;;;;;0.46;100.00;93792.56;5003715;28;20129;-66
2022/12/05 05:07:19;;;;;;;26.05;9.52;;;;;;;0.52;100.00;93785.75;5007353;28;20372;-66
2022/12/05 05:09:45;;;;;;;28.70;9.60;;;;;;;0.57;100.00;93790.88;5012112;28;20049;-66
2022/12/05 05:12:12;;;;;;;27.02;9.43;;;;;;;0.62;100.00;93787.09;5011916;28;20042;-66
2022/12/05 05:14:44;;;;;;;29.45;11.40;;;;;;;0.64;100.00;93782.13;5011866;28;20949;-66
2022/12/05 05:17:11;;;;;;;33.95;13.13;;;;;;;0.64;100.00;93785.59;4999563;28;20043;-66
2022/12/05 05:19:38;;;;;;;28.42;11.00;;;;;;;0.67;100.00;93779.50;5009340;28;20046;-67
2022/12/05 05:22:04;;;;;;;57.67;25.40;;;;;;;0.65;100.00;93783.69;5011833;28;20048;-67
2022/12/05 05:24:31;;;;;;;44.92;19.40;;;;;;;0.78;100.00;93777.78;5008307;28;20046;-67
2022/12/05 05:26:58;;;;;;;30.23;12.18;;;;;;;0.85;100.00;93787.19;5011480;28;20053;-67
2022/12/05 05:29:24;;;;;;;35.78;15.18;;;;;;;0.75;100.00;93791.22;5012145;28;20054;-67
2022/12/05 05:31:51;;;;;;;42.78;18.30;;;;;;;0.71;100.00;93803.88;5011251;28;20050;-67
2022/12/05 05:34:18;;;;;;;40.10;16.60;;;;;;;0.67;100.00;93806.50;5011780;28;20060;-67
2022/12/05 05:36:44;;;;;;;34.97;14.10;;;;;;;0.65;100.00;93803.38;5011459;28;20054;-67
2022/12/05 05:39:13;;;;;;;31.88;12.57;;;;;;;0.66;100.00;93804.16;5009943;28;20411;-68
2022/12/05 05:41:41;;;;;;;27.52;10.77;;;;;;;0.66;100.00;93804.94;5008095;28;20049;-68
2022/12/05 05:44:09;;;;;;;31.50;11.55;;;;;;;0.64;100.00;93811.84;4992029;28;20403;-68
2022/12/05 05:46:35;;;;;;;41.80;18.77;;;;;;;0.59;100.00;93812.91;4996089;28;20046;-68
2022/12/05 05:49:03;;;;;;;31.58;13.60;;;;;;;0.59;100.00;93810.19;5004525;28;20491;-68
2022/12/05 05:51:31;;;;;;;40.83;16.90;;;;;;;0.61;100.00;93816.03;4985251;28;20205;-67
2022/12/05 05:53:59;;;;;;;48.20;20.17;;;;;;;0.71;100.00;93814.69;5008970;28;20073;-68
2022/12/05 05:56:26;;;;;;;47.47;20.02;;;;;;;0.78;100.00;93802.09;5010008;28;20445;-68
2022/12/05 05:58:59;;;;;;;37.03;13.95;;;;;;;0.82;100.00;93798.69;5007534;28;20038;-68
2022/12/05 06:01:27;;;;;;;27.08;11.15;;;;;;;0.90;100.00;93803.09;5001615;28;20042;-68
2022/12/05 06:03:53;;;;;;;43.83;22.63;;;;;;;0.85;100.00;93814.19;5010789;28;20056;-68
2022/12/05 06:06:21;;;;;;;43.10;20.20;;;;;;;0.80;100.00;93804.44;5011255;28;20052;-68
2022/12/05 06:08:48;;;;;;;29.90;11.77;;;;;;;0.75;100.00;93823.66;5010214;28;20434;-67
2022/12/05 06:11:20;;;;;;;47.30;21.48;;;;;;;0.72;100.00;93830.53;5011280;28;20403;-68
2022/12/05 06:13:56;;;;;;;38.13;16.08;;;;;;;0.73;100.00;93826.69;5010107;28;20050;-67
2022/12/05 06:16:23;;;;;;;42.22;18.98;;;;;;;0.79;100.00;93827.97;5004260;28;20042;-68
2022/12/05 06:18:51;;;;;;;38.97;17.30;;;;;;;0.85;100.00;93831.19;5003541;28;20038;-67
2022/12/05 06:21:18;;;;;;;42.30;20.00;;;;;;;0.89;100.00;93842.06;5010742;28;20123;-68
2022/12/05 06:23:44;;;;;;;32.03;13.13;;;;;;;0.83;100.00;93857.00;5010777;28;20042;-68
2022/12/05 06:26:14;;;;;;;44.20;19.23;;;;;;;0.89;100.00;93855.56;5006658;28;20042;-68
2022/12/05 06:28:41;;;;;;;26.65;10.80;;;;;;;0.86;100.00;93858.97;5010536;28;20054;-68
2022/12/05 06:31:10;;;;;;;24.40;10.43;;;;;;;0.86;100.00;93861.66;5010347;28;20068;-68
2022/12/05 06:33:37;;;;;;;30.05;11.85;;;;;;;0.90;100.00;93854.41;5010280;28;20406;-68
2022/12/05 06:36:10;;;;;;;25.60;11.00;;;;;;;0.98;100.00;93851.50;5010355;28;20491;-68
2022/12/05 06:38:37;;;;;;;28.88;11.25;;;;;;;1.03;100.00;93855.03;5010474;28;20099;-68
2022/12/05 06:41:12;;;;;;;33.90;13.73;;;;;;;1.06;100.00;93855.13;5010052;28;20395;-68
2022/12/05 06:43:39;;;;;;;30.70;12.40;;;;;;;1.18;100.00;93862.31;5010511;28;20476;-68
2022/12/05 06:46:07;;;;;;;29.83;11.63;;;;;;;1.25;100.00;93867.84;5010048;28;20648;-68
2022/12/05 06:48:34;;;;;;;28.60;12.25;;;;;;;1.13;100.00;93866.09;5010290;28;20050;-68
2022/12/05 06:51:01;;;;;;;27.17;11.52;;;;;;;1.16;100.00;93868.06;4998827;28;20058;-65
2022/12/05 06:53:27;;;;;;;27.88;12.00;;;;;;;1.13;100.00;93866.09;4990977;28;20549;-66
2022/12/05 06:55:56;;;;;;;25.23;10.80;;;;;;;1.26;100.00;93863.22;4990071;28;20096;-65
2022/12/05 06:58:23;;;;;;;28.33;11.63;;;;;;;1.27;100.00;93862.88;4990614;28;20046;-66
2022/12/05 07:03:36;;;;;;;26.98;11.18;;;;;;;1.16;100.00;93859.19;5009996;28;20450;-67
2022/12/05 07:06:04;;;;;;;25.73;11.25;;;;;;;1.10;100.00;93861.38;5009623;28;20111;-68
2022/12/05 07:08:32;;;;;;;25.90;10.82;;;;;;;1.06;100.00;93859.75;5010169;28;20046;-68
2022/12/05 07:10:59;;;;;;;26.48;10.98;;;;;;;1.12;100.00;93863.72;5009621;28;20399;-67
2022/12/05 07:13:26;;;;;;;25.47;9.77;;;;;;;1.21;100.00;93864.31;4990481;28;20104;-67
2022/12/05 07:15:52;;;;;;;27.05;10.43;;;;;;;1.22;100.00;93865.84;4994191;28;20425;-67
2022/12/05 07:18:19;;;;;;;26.70;10.40;;;;;;;1.16;100.00;93870.75;4987566;28;20050;-67
2022/12/05 07:20:56;;;;;;;22.90;9.77;;;;;;;1.10;100.00;93883.00;4985779;28;20046;-68
2022/12/05 07:23:38;;;;;;;27.33;9.35;;;;;;;1.07;100.00;93880.25;5006007;28;20441;-67
2022/12/05 07:26:06;;;;;;;25.60;9.95;;;;;;;1.09;100.00;93886.09;5001351;28;20046;-68
2022/12/05 07:28:33;;;;;;;22.25;9.65;;;;;;;1.11;100.00;93887.28;5007619;28;20046;-67
2022/12/05 07:31:02;;;;;;;23.40;9.98;;;;;;;1.11;100.00;93887.28;4998024;28;20062;-68
2022/12/05 07:33:29;;;;;;;24.30;10.75;;;;;;;1.15;100.00;93885.44;5010196;28;20046;-67
2022/12/05 07:36:05;;;;;;;23.25;9.88;;;;;;;1.26;100.00;93884.84;5003732;28;20052;-67
2022/12/05 07:38:32;;;;;;;36.08;16.17;;;;;;;1.35;100.00;93888.91;5002916;28;20503;-67
2022/12/05 07:41:03;;;;;;;57.05;22.73;;;;;;;1.27;100.00;93898.03;5009403;28;20158;-68
2022/12/05 07:43:37;;;;;;;30.05;13.07;;;;;;;1.20;100.00;93892.47;5009844;28;20092;-68
2022/12/05 07:46:05;;;;;;;26.70;12.13;;;;;;;1.25;100.00;93885.97;5003504;28;20042;-67
2022/12/05 07:48:32;;;;;;;24.50;10.68;;;;;;;1.36;100.00;93878.88;5002650;28;20042;-67
2022/12/05 07:51:03;;;;;;;24.88;11.15;;;;;;;1.03;100.00;93877.47;5009349;28;20044;-67
2022/12/05 07:53:32;;;;;;;23.17;10.20;;;;;;;1.07;100.00;93885.66;5010177;28;20083;-67
2022/12/05 07:56:00;;;;;;;28.13;12.15;;;;;;;1.12;100.00;93880.72;5001580;28;20038;-67
2022/12/05 07:58:28;;;;;;;29.92;11.75;;;;;;;1.33;100.00;93904.69;5009963;28;20053;-67
2022/12/05 08:00:56;;;;;;;29.75;12.65;;;;;;;1.38;100.00;93920.63;5008657;28;20062;-67
2022/12/05 08:03:22;;;;;;;30.30;13.13;;;;;;;1.40;100.00;93929.16;5004647;28;20502;-67
2022/12/05 08:05:49;;;;;;;26.80;12.15;;;;;;;1.45;100.00;93938.94;5000879;28;20049;-67
2022/12/05 08:08:16;;;;;;;29.08;13.73;;;;;;;1.34;100.00;93941.41;5009253;28;20116;-65
2022/12/05 08:10:43;;;;;;;29.00;11.13;;;;;;;1.38;100.00;93933.38;5009527;28;20569;-65
2022/12/05 08:13:09;;;;;;;21.83;9.20;;;;;;;1.36;100.00;93930.25;5011111;28;20065;-68
2022/12/05 08:15:36;;;;;;;19.27;8.17;;;;;;;1.27;100.00;93935.06;5012043;28;20042;-66
2022/12/05 08:18:03;;;;;;;22.63;8.85;;;;;;;1.25;100.00;93938.16;5012836;28;20109;-66
2022/12/05 08:20:29;;;;;;;30.15;10.35;;;;;;;1.23;100.00;93939.63;5007133;28;20042;-66
2022/12/05 08:22:56;;;;;;;30.40;11.98;;;;;;;1.20;100.00;93947.31;5005372;28;20046;-66
2022/12/05 08:25:23;;;;;;;22.30;9.38;;;;;;;1.23;100.00;93951.22;5005305;28;20049;-66
2022/12/05 08:27:50;;;;;;;24.15;9.25;;;;;;;1.18;100.00;93951.50;5007374;28;20486;-66
2022/12/05 08:30:17;;;;;;;24.88;10.35;;;;;;;1.15;100.00;93958.41;4992865;28;20099;-66
2022/12/05 08:32:43;;;;;;;26.40;10.18;;;;;;;1.25;100.00;93946.25;4997083;28;20077;-66
2022/12/05 08:35:10;;;;;;;22.45;9.63;;;;;;;1.21;100.00;93937.28;5007472;28;20042;-66
2022/12/05 08:37:37;;;;;;;21.38;9.75;;;;;;;1.34;100.00;93938.69;4998705;28;20457;-66
2022/12/05 08:40:04;;;;;;;20.65;9.23;;;;;;;1.39;100.00;93945.75;5011756;28;20053;-66
2022/12/05 08:42:31;;;;;;;27.02;12.38;;;;;;;1.42;100.00;93933.44;5012954;28;20060;-67
2022/12/05 08:44:58;;;;;;;24.02;10.50;;;;;;;1.35;100.00;93934.09;5008509;28;20050;-66
2022/12/05 08:47:26;;;;;;;20.80;9.43;;;;;;;1.44;100.00;93942.75;4993275;28;20112;-67
2022/12/05 08:49:52;;;;;;;18.45;8.45;;;;;;;1.44;100.00;93945.47;5006583;28;20107;-67
2022/12/05 08:52:20;;;;;;;18.15;8.38;;;;;;;1.48;100.00;93950.94;5012785;28;20487;-67
2022/12/05 08:54:47;;;;;;;19.27;8.45;;;;;;;1.46;100.00;93948.59;5012349;28;20049;-67
2022/12/05 08:57:13;;;;;;;17.77;7.78;;;;;;;1.46;100.00;93959.41;4994963;28;21608;-67
2022/12/05 08:59:40;;;;;;;17.15;7.43;;;;;;;1.40;100.00;93969.72;5012272;28;20384;-67
2022/12/05 09:02:08;;;;;;;18.50;7.25;;;;;;;1.43;100.00;93972.84;5007630;28;20404;-67
2022/12/05 09:04:35;;;;;;;16.70;7.28;;;;;;;1.34;100.00;93979.25;5003165;28;20054;-67
2022/12/05 09:07:02;;;;;;;16.95;7.40;;;;;;;1.27;100.00;93981.03;5011600;28;20403;-67
2022/12/05 09:09:29;;;;;;;16.42;6.63;;;;;;;1.30;100.00;93981.09;5012434;28;20054;-67
2022/12/05 09:11:56;;;;;;;19.73;7.10;;;;;;;1.27;100.00;93973.72;5011897;28;20376;-68
2022/12/05 09:14:24;;;;;;;14.50;6.47;;;;;;;1.30;100.00;93973.00;5012364;28;20046;-68
2022/12/05 09:16:50;;;;;;;15.07;6.37;;;;;;;1.25;100.00;93973.28;5010503;28;20091;-67
2022/12/05 09:19:24;;;;;;;16.23;6.90;;;;;;;1.25;100.00;93969.78;5011926;28;20046;-67
2022/12/05 09:21:51;;;;;;;15.35;6.95;;;;;;;1.29;100.00;93979.56;5011528;28;20034;-67
2022/12/05 09:24:18;;;;;;;21.25;8.13;;;;;;;1.36;100.00;93981.59;4999639;28;20042;-67
2022/12/05 09:26:45;;;;;;;19.73;8.40;;;;;;;1.34;100.00;93983.88;5010312;28;20060;-67
2022/12/05 09:29:12;;;;;;;17.10;6.63;;;;;;;1.46;100.00;93988.38;4992971;28;20050;-68
2022/12/05 09:31:45;;;;;;;21.88;8.38;;;;;;;1.44;100.00;93986.03;4995700;28;20442;-67
2022/12/05 09:34:13;;;;;;;19.70;8.15;;;;;;;1.58;100.00;93993.66;4996503;28;20403;-65
2022/12/05 09:36:41;;;;;;;22.42;8.68;;;;;;;1.52;100.00;93989.66;5006795;28;20065;-66
2022/12/05 09:39:09;;;;;;;22.33;9.45;;;;;;;1.55;100.00;94000.56;5002983;28;20487;-66
2022/12/05 09:42:09;;;;;;;23.20;10.23;;;;;;;1.67;100.00;94004.22;5011563;28;20479;-66
2022/12/05 09:45:14;;;;;;;21.95;8.70;;;;;;;1.69;100.00;94010.88;5010840;28;20054;-66
2022/12/05 09:47:44;;;;;;;18.00;8.40;;;;;;;1.71;100.00;93995.06;4981638;28;21558;-66
2022/12/05 09:50:13;;;;;;;16.70;7.45;;;;;;;1.57;100.00;93992.06;5007924;28;20050;-66
2022/12/05 09:53:12;;;;;;;16.02;7.80;;;;;;;1.91;100.00;93995.84;5004891;28;20410;-67
2022/12/05 09:55:45;;;;;;;17.17;7.53;;;;;;;1.99;100.00;93999.44;4973291;28;20614;-66
2022/12/05 09:58:17;;;;;;;15.85;7.00;;;;;;;2.02;100.00;94006.06;5010958;28;20099;-66
2022/12/05 10:00:44;;;;;;;15.48;6.82;;;;;;;1.99;100.00;93997.53;5009419;28;20087;-66
2022/12/05 10:03:18;;;;;;;13.73;6.03;;;;;;;1.85;100.00;94002.69;4998719;28;20046;-67
2022/12/05 10:06:05;;;;;;;16.23;6.63;;;;;;;1.93;100.00;93998.97;5009831;28;20038;-66
2022/12/05 10:09:00;;;;;;;16.70;6.83;;;;;;;1.96;100.00;93992.03;5009580;28;20396;-66
2022/12/05 10:11:36;;;;;;;17.75;7.50;;;;;;;2.05;100.00;93994.50;5010335;28;21312;-67
2022/12/05 10:14:18;;;;;;;16.55;7.45;;;;;;;1.97;100.00;93989.00;5010574;28;20058;-66
2022/12/05 10:17:00;;;;;;;16.05;6.90;;;;;;;1.99;100.00;93980.50;5011017;28;20072;-67
2022/12/05 10:19:33;;;;;;;29.15;14.40;;;;;;;1.95;100.00;93985.84;5010362;28;20116;-67
2022/12/05 10:22:22;;;;;;;17.77;7.60;;;;;;;1.96;100.00;93982.00;5010661;28;20065;-67
2022/12/05 10:24:53;;;;;;;17.10;7.95;;;;;;;2.14;100.00;93981.53;5008640;28;20087;-66
2022/12/05 10:27:51;;;;;;;15.95;7.07;;;;;;;2.04;100.00;93985.63;5011269;28;20072;-66
2022/12/05 10:30:20;;;;;;;15.45;6.22;;;;;;;1.90;100.00;93985.38;5007062;28;20588;-67
2022/12/05 10:32:55;;;;;;;17.70;7.00;;;;;;;1.85;100.00;93988.34;5010837;28;20042;-67
2022/12/05 10:35:24;;;;;;;19.93;8.13;;;;;;;1.98;100.00;93990.53;5010105;28;20119;-67
2022/12/05 10:37:56;;;;;;;18.55;7.28;;;;;;;1.96;100.00;93982.00;4996018;28;20072;-67
2022/12/05 10:40:35;;;;;;;17.60;7.60;;;;;;;1.99;100.00;93986.72;5010927;28;20041;-67
2022/12/05 10:43:04;;;;;;;17.42;7.15;;;;;;;1.90;100.00;93983.44;4996730;28;20050;-67
2022/12/05 10:45:31;;;;;;;16.67;7.45;;;;;;;2.06;100.00;93980.63;4997917;28;20057;-67
2022/12/05 10:47:57;;;;;;;17.87;7.10;;;;;;;2.04;100.00;93984.84;5010207;28;20042;-67
2022/12/05 10:50:30;;;;;;;16.67;7.55;;;;;;;2.09;100.00;93977.19;5010331;28;20510;-67
2022/12/05 10:52:59;;;;;;;18.33;7.75;;;;;;;2.27;100.00;93976.72;5010198;28;20615;-67
2022/12/05 10:55:35;;;;;;;18.20;7.55;;;;;;;2.34;100.00;93976.84;5007446;28;20046;-67
2022/12/05 10:58:23;;;;;;;18.10;7.85;;;;;;;2.37;100.00;93968.00;5009954;28;20050;-66
2022/12/05 11:00:54;;;;;;;16.70;8.10;;;;;;;2.53;100.00;93967.88;5009341;28;20058;-67
2022/12/05 11:03:41;;;;;;;16.10;7.22;;;;;;;2.30;100.00;93963.25;5004998;28;20058;-67
2022/12/05 11:06:27;;;;;;;14.35;6.32;;;;;;;2.26;100.00;93970.53;4990689;28;20073;-67
2022/12/05 11:09:16;;;;;;;15.73;6.70;;;;;;;2.32;100.00;93968.31;5002689;28;20092;-68
2022/12/05 11:11:59;;;;;;;16.30;7.15;;;;;;;2.55;100.00;93960.94;5006788;28;20054;-66
2022/12/05 11:14:25;;;;;;;16.23;7.80;;;;;;;2.63;100.00;93958.34;5009801;28;20084;-66
2022/12/05 11:16:57;;;;;;;16.23;7.95;;;;;;;2.88;100.00;93956.00;5009445;28;20203;-66
2022/12/05 11:19:26;;;;;;;14.10;6.95;;;;;;;2.56;100.00;93967.94;5010263;28;20045;-66
2022/12/05 11:21:53;;;;;;;17.65;8.13;;;;;;;2.52;100.00;93967.09;4996793;28;20365;-66
2022/12/05 11:24:31;;;;;;;17.08;8.25;;;;;;;2.59;100.00;93967.19;5006767;28;20514;-66
2022/12/05 11:27:17;;;;;;;14.70;6.87;;;;;;;2.60;100.00;93963.34;4999677;28;20045;-66
2022/12/05 11:30:12;;;;;;;14.93;7.25;;;;;;;2.65;100.00;93959.53;5010041;28;20034;-67
2022/12/05 11:32:39;;;;;;;19.40;9.43;;;;;;;2.84;100.00;93949.75;5009209;28;21496;-68
2022/12/05 11:35:12;;;;;;;16.00;7.72;;;;;;;2.87;99.93;93946.31;5009310;28;20457;-66
2022/12/05 11:37:50;;;;;;;23.08;13.25;;;;;;;2.75;99.78;93950.00;4997093;28;20483;-67
2022/12/05 11:40:51;;;;;;;19.47;9.97;;;;;;;3.00;99.92;93948.44;4994253;28;20230;-68
2022/12/05 11:43:39;;;;;;;20.38;10.15;;;;;;;3.00;100.00;93950.38;5007443;28;20389;-66
2022/12/05 11:46:14;;;;;;;12.65;6.28;;;;;;;2.98;99.36;93948.03;5009352;28;20501;-66
2022/12/05 11:49:08;;;;;;;29.58;14.50;;;;;;;3.11;99.97;93953.22;5012913;28;20050;-68
2022/12/05 11:51:52;;;;;;;27.48;12.68;;;;;;;2.83;100.00;93962.53;5003567;28;20406;-66
2022/12/05 11:54:41;;;;;;;24.67;11.10;;;;;;;2.82;100.00;93954.75;5000964;28;20395;-68